Time;durP1;ratioP1;P1;durP2;ratioP2;P2;SDS_P1;SDS_P2;PMS_P1;PMS_P2;Temp;Humidity;BMP_temperature;BMP_pressure;BME280_temperature;BME280_humidity;BME280_pressure;Samples;Min_cycle;Max_cycle;Signal;HPM_P1;HPM_P2
2022/12/01 00:02:04;;;;;;;;;;;;;;;2.69;100.00;96934.88;5095540;28;19956;-79
2022/12/01 00:04:30;;;;;;;;;;;;;;;2.69;100.00;96940.88;5078464;28;20005;-79
2022/12/01 00:06:56;;;;;;;;;;;;;;;2.67;100.00;96924.69;5094880;28;19956;-79
2022/12/01 00:12:06;;;;;;;;;;;;;;;2.63;100.00;96931.16;5096058;28;19957;-78
2022/12/01 00:14:32;;;;;;;;;;;;;;;2.59;100.00;96925.47;5096619;28;20400;-79
2022/12/01 00:16:58;;;;;;;;;;;;;;;2.57;100.00;96929.19;5096259;28;19951;-78
2022/12/01 00:19:24;;;;;;;;;;;;;;;2.57;100.00;96932.56;5094753;28;19998;-78
2022/12/01 00:21:50;;;;;;;;;;;;;;;2.58;100.00;96934.22;5094652;28;19961;-78
2022/12/01 00:24:16;;;;;;;;;;;;;;;2.58;100.00;96925.59;5095877;28;19952;-78
2022/12/01 00:26:42;;;;;;;;;;;;;;;2.58;100.00;96929.03;5095241;28;19955;-78
2022/12/01 00:29:08;;;;;;;;;;;;;;;2.57;100.00;96927.38;5095915;28;19948;-78
2022/12/01 00:31:34;;;;;;;;;;;;;;;2.55;100.00;96923.34;5095723;28;20382;-78
2022/12/01 00:34:00;;;;;;;;;;;;;;;2.54;100.00;96932.91;5095692;28;20314;-78
2022/12/01 00:36:26;;;;;;;;;;;;;;;2.53;100.00;96933.84;5094441;28;19951;-78
2022/12/01 00:38:53;;;;;;;;;;;;;;;2.53;100.00;96927.88;5094510;28;19969;-79
2022/12/01 00:41:19;;;;;;;;;;;;;;;2.55;100.00;96931.09;5095747;28;20326;-78
2022/12/01 00:43:45;;;;;;;;;;;;;;;2.54;100.00;96925.13;5077674;28;19963;-78
2022/12/01 00:46:11;;;;;;;;;;;;;;;2.54;100.00;96922.53;5077341;28;19951;-78
2022/12/01 00:48:37;;;;;;;;;;;;;;;2.54;100.00;96919.13;5095579;28;19999;-78
2022/12/01 00:51:03;;;;;;;;;;;;;;;2.50;100.00;96923.81;5095556;28;19966;-78
2022/12/01 00:53:29;;;;;;;;;;;;;;;2.47;100.00;96924.09;5094084;28;19992;-79
2022/12/01 00:55:55;;;;;;;;;;;;;;;2.43;100.00;96930.56;5094409;28;20346;-78
2022/12/01 00:58:21;;;;;;;;;;;;;;;2.41;100.00;96927.31;5095560;28;20361;-79
2022/12/01 01:00:47;;;;;;;;;;;;;;;2.39;100.00;96924.91;5094043;28;20505;-78
2022/12/01 01:03:13;;;;;;;;;;;;;;;2.38;100.00;96925.03;5095153;28;19958;-78
2022/12/01 01:05:40;;;;;;;;;;;;;;;2.37;100.00;96932.00;5093846;28;20410;-78
2022/12/01 01:08:07;;;;;;;;;;;;;;;2.37;100.00;96931.16;5077013;28;19951;-78
2022/12/01 01:10:33;;;;;;;;;;;;;;;2.35;100.00;96921.00;5093956;28;19975;-78
2022/12/01 01:12:59;;;;;;;;;;;;;;;2.35;100.00;96930.50;5076938;28;19958;-78
2022/12/01 01:15:25;;;;;;;;;;;;;;;2.33;100.00;96930.69;5076987;28;19972;-77
2022/12/01 01:17:50;;;;;;;;;;;;;;;2.33;100.00;96929.84;5094736;28;19973;-78
2022/12/01 01:20:16;;;;;;;;;;;;;;;2.32;100.00;96933.41;5095140;28;20388;-78
2022/12/01 01:22:42;;;;;;;;;;;;;;;2.30;100.00;96932.75;5093463;28;19973;-78
2022/12/01 01:25:08;;;;;;;;;;;;;;;2.32;100.00;96936.81;5095054;28;20476;-78
2022/12/01 01:27:34;;;;;;;;;;;;;;;2.35;100.00;96944.28;5094800;28;20415;-78
2022/12/01 01:30:00;;;;;;;;;;;;;;;2.36;100.00;96942.50;5093158;28;19956;-78
2022/12/01 01:32:25;;;;;;;;;;;;;;;2.39;100.00;96944.78;5093325;28;20013;-78
2022/12/01 01:34:51;;;;;;;;;;;;;;;2.42;100.00;96944.47;5093524;28;19980;-78
2022/12/01 01:37:17;;;;;;;;;;;;;;;2.45;100.00;96941.56;5094414;28;19954;-79
2022/12/01 01:39:43;;;;;;;;;;;;;;;2.49;100.00;96939.50;5093405;28;19996;-79
2022/12/01 01:42:13;;;;;;;;;;;;;;;2.49;100.00;96945.47;5094499;28;19961;-78
2022/12/01 01:44:45;;;;;;;;;;;;;;;2.49;100.00;96944.66;5094392;28;19945;-79
2022/12/01 01:47:11;;;;;;;;;;;;;;;2.49;100.00;96942.09;5092969;28;19969;-78
2022/12/01 01:49:37;;;;;;;;;;;;;;;2.50;100.00;96946.28;5076208;28;19956;-78
2022/12/01 01:52:03;;;;;;;;;;;;;;;2.51;100.00;96942.75;5094367;28;20336;-77
2022/12/01 01:54:34;;;;;;;;;;;;;;;2.52;100.00;96937.41;5094352;28;19954;-78
2022/12/01 01:57:00;;;;;;;;;;;;;;;2.53;100.00;96938.22;5093133;28;19956;-78
2022/12/01 01:59:28;;;;;;;;;;;;;;;2.52;100.00;96944.34;5092993;28;19957;-80
2022/12/01 02:02:12;;;;;;;;;;;;;;;2.49;100.00;96948.06;5093384;28;19952;-79
2022/12/01 02:04:39;;;;;;;;;;;;;;;2.45;100.00;96941.56;5094309;28;19959;-79
2022/12/01 02:07:07;;;;;;;;;;;;;;;2.46;100.00;96937.19;5092848;28;19953;-80
2022/12/01 02:09:32;;;;;;;;;;;;;;;2.46;100.00;96944.97;5075958;28;19958;-80
2022/12/01 02:12:17;;;;;;;;;;;;;;;2.48;100.00;96940.44;5092555;28;19997;-80
2022/12/01 02:15:01;;;;;;;;;;;;;;;2.50;100.00;96941.94;5093885;28;19953;-80
2022/12/01 02:17:39;;;;;;;;;;;;;;;2.48;100.00;96930.91;5087073;28;19942;-79
2022/12/01 02:20:05;;;;;;;;;;;;;;;2.47;100.00;96928.47;5092629;28;19959;-80
2022/12/01 02:22:43;;;;;;;;;;;;;;;2.46;100.00;96929.44;5092679;28;20345;-79
2022/12/01 02:25:20;;;;;;;;;;;;;;;2.47;100.00;96933.66;5075815;28;19957;-79
2022/12/01 02:28:03;;;;;;;;;;;;;;;2.49;100.00;96926.53;5081516;28;19943;-78
2022/12/01 02:30:37;;;;;;;;;;;;;;;2.50;100.00;96926.41;5093643;28;19968;-80
2022/12/01 02:33:10;;;;;;;;;;;;;;;2.47;100.00;96921.50;5092523;28;19975;-79
2022/12/01 02:35:42;;;;;;;;;;;;;;;2.47;100.00;96923.31;5092349;28;19977;-79
2022/12/01 02:38:12;;;;;;;;;;;;;;;2.50;100.00;96928.16;5092473;28;20026;-79
2022/12/01 02:40:38;;;;;;;;;;;;;;;2.51;100.00;96922.84;5092470;28;19944;-79
2022/12/01 02:43:13;;;;;;;;;;;;;;;2.50;100.00;96923.81;5092511;28;20324;-79
2022/12/01 02:45:52;;;;;;;;;;;;;;;2.45;100.00;96923.44;5092564;28;19947;-78
2022/12/01 02:48:22;;;;;;;;;;;;;;;2.42;100.00;96916.81;5092542;28;19944;-78
2022/12/01 02:50:49;;;;;;;;;;;;;;;2.39;100.00;96921.47;5093384;28;20048;-78
2022/12/01 02:53:18;;;;;;;;;;;;;;;2.36;100.00;96922.59;5093549;28;19952;-78
2022/12/01 02:55:48;;;;;;;;;;;;;;;2.33;100.00;96917.75;5093345;28;19956;-77
2022/12/01 02:58:14;;;;;;;;;;;;;;;2.26;100.00;96923.69;5092238;28;19978;-78
2022/12/01 03:00:45;;;;;;;;;;;;;;;2.19;100.00;96924.28;5093864;28;19947;-78
2022/12/01 03:03:28;;;;;;;;;;;;;;;2.15;100.00;96922.97;5093486;28;19963;-78
2022/12/01 03:06:13;;;;;;;;;;;;;;;2.17;100.00;96928.81;5093598;28;19976;-78
2022/12/01 03:08:48;;;;;;;;;;;;;;;2.14;100.00;96921.38;5078938;28;19946;-78
2022/12/01 03:11:25;;;;;;;;;;;;;;;2.13;100.00;96922.31;5092503;28;19969;-78
2022/12/01 03:14:07;;;;;;;;;;;;;;;2.13;100.00;96922.31;5078045;28;20410;-78
2022/12/01 03:16:41;;;;;;;;;;;;;;;2.12;100.00;96920.72;5092282;28;19955;-79
2022/12/01 03:19:11;;;;;;;;;;;;;;;2.16;100.00;96919.44;5082047;28;20405;-78
2022/12/01 03:21:40;;;;;;;;;;;;;;;2.18;100.00;96917.50;5093108;28;19958;-79
2022/12/01 03:24:09;;;;;;;;;;;;;;;2.18;100.00;96917.50;5095620;28;19959;-79
2022/12/01 03:26:36;;;;;;;;;;;;;;;2.18;100.00;96914.09;5097212;28;19944;-79
2022/12/01 03:29:05;;;;;;;;;;;;;;;2.18;100.00;96914.94;5096933;28;20306;-78
2022/12/01 03:31:34;;;;;;;;;;;;;;;2.21;100.00;96917.19;5095616;28;19962;-78
2022/12/01 03:34:26;;;;;;;;;;;;;;;2.23;100.00;96914.47;5096668;28;19981;-78
2022/12/01 03:36:58;;;;;;;;;;;;;;;2.25;100.00;96909.94;5093428;28;19947;-78
2022/12/01 03:39:27;;;;;;;;;;;;;;;2.26;100.00;96913.34;5096698;28;19956;-78
2022/12/01 03:41:59;;;;;;;;;;;;;;;2.24;100.00;96911.69;5097038;28;19957;-77
2022/12/01 03:44:29;;;;;;;;;;;;;;;2.22;100.00;96918.00;5095970;28;20395;-77
2022/12/01 03:47:04;;;;;;;;;;;;;;;2.17;100.00;96913.28;5095371;28;19950;-77
2022/12/01 03:49:30;;;;;;;;;;;;;;;2.17;100.00;96917.66;5095639;28;19959;-77
2022/12/01 03:52:27;;;;;;;;;;;;;;;2.16;100.00;96908.25;5096355;28;19972;-78
2022/12/01 03:55:11;;;;;;;;;;;;;;;2.15;100.00;96917.81;5049304;28;19947;-78
2022/12/01 03:57:44;;;;;;;;;;;;;;;2.15;100.00;96914.41;5113521;27;19955;-78
2022/12/01 04:00:10;;;;;;;;;;;;;;;2.14;100.00;96913.59;5096505;28;19969;-78
2022/12/01 04:02:36;;;;;;;;;;;;;;;2.14;100.00;96910.19;5096559;28;20313;-78
2022/12/01 04:05:04;;;;;;;;;;;;;;;2.11;100.00;96918.25;5095523;28;19947;-78
2022/12/01 04:07:30;;;;;;;;;;;;;;;2.11;100.00;96916.47;5096630;28;20320;-78
2022/12/01 04:09:56;;;;;;;;;;;;;;;2.12;100.00;96917.28;5095194;28;19980;-77
2022/12/01 04:12:28;;;;;;;;;;;;;;;2.12;100.00;96925.03;5095102;28;19958;-77
2022/12/01 04:15:01;;;;;;;;;;;;;;;2.11;100.00;96924.25;5082948;28;19946;-77
2022/12/01 04:17:27;;;;;;;;;;;;;;;2.11;100.00;96921.66;5096135;28;19974;-78
2022/12/01 04:19:53;;;;;;;;;;;;;;;2.10;100.00;96921.81;5094780;28;20498;-78
2022/12/01 04:22:19;;;;;;;;;;;;;;;2.07;100.00;96920.34;5096394;28;19964;-78
2022/12/01 04:24:45;;;;;;;;;;;;;;;2.09;100.00;96922.78;5094737;28;19954;-78
2022/12/01 04:27:11;;;;;;;;;;;;;;;2.12;100.00;96920.72;5077720;28;20333;-78
2022/12/01 04:29:37;;;;;;;;;;;;;;;2.15;100.00;96914.41;5094810;28;21107;-78
2022/12/01 04:32:03;;;;;;;;;;;;;;;2.15;100.00;96922.19;5096115;28;20007;-78
2022/12/01 04:34:29;;;;;;;;;;;;;;;2.17;100.00;96923.63;5077433;28;19981;-78
2022/12/01 04:36:55;;;;;;;;;;;;;;;2.19;100.00;96921.72;5094699;28;20408;-79
2022/12/01 04:39:21;;;;;;;;;;;;;;;2.21;100.00;96922.38;5077654;28;19995;-78
2022/12/01 04:41:47;;;;;;;;;;;;;;;2.22;100.00;96930.94;5077359;28;19967;-78
2022/12/01 04:44:13;;;;;;;;;;;;;;;2.22;100.00;96934.31;5095847;28;19958;-78
2022/12/01 04:46:39;;;;;;;;;;;;;;;2.21;100.00;96927.53;5094144;28;19954;-78
2022/12/01 04:49:05;;;;;;;;;;;;;;;2.19;100.00;96932.06;5094678;28;19973;-78
2022/12/01 04:51:31;;;;;;;;;;;;;;;2.17;100.00;96935.78;5094317;28;20415;-78
2022/12/01 04:53:57;;;;;;;;;;;;;;;2.15;100.00;96932.53;5094237;28;19954;-78
2022/12/01 04:56:23;;;;;;;;;;;;;;;2.16;100.00;96937.56;5094051;28;19947;-78
2022/12/01 04:58:49;;;;;;;;;;;;;;;2.16;100.00;96934.97;5094376;28;20416;-78
2022/12/01 05:01:16;;;;;;;;;;;;;;;2.17;100.00;96943.53;5095092;28;19953;-78
2022/12/01 05:03:43;;;;;;;;;;;;;;;2.15;100.00;96937.69;5095485;28;19960;-79
2022/12/01 05:06:13;;;;;;;;;;;;;;;2.13;100.00;96940.44;5093808;28;19958;-78
2022/12/01 05:08:40;;;;;;;;;;;;;;;2.11;100.00;96934.59;5093869;28;20349;-79
2022/12/01 05:11:10;;;;;;;;;;;;;;;2.11;100.00;96936.38;5093789;28;19974;-78
2022/12/01 05:13:40;;;;;;;;;;;;;;;2.10;100.00;96932.16;5095031;28;19956;-78
2022/12/01 05:16:07;;;;;;;;;;;;;;;2.07;100.00;96937.66;5094913;28;19974;-78
2022/12/01 05:18:33;;;;;;;;;;;;;;;2.03;100.00;96939.72;5094188;28;20405;-78
2022/12/01 05:20:58;;;;;;;;;;;;;;;1.96;100.00;96941.28;5094915;28;19944;-78
2022/12/01 05:23:25;;;;;;;;;;;;;;;1.91;100.00;96935.75;5094850;28;20428;-78
2022/12/01 05:25:51;;;;;;;;;;;;;;;1.91;100.00;96944.34;5093305;28;19948;-78
2022/12/01 05:28:18;;;;;;;;;;;;;;;1.93;100.00;96949.34;5094870;28;19948;-78
2022/12/01 05:30:44;;;;;;;;;;;;;;;1.93;100.00;96947.59;5093219;28;19959;-78
2022/12/01 05:33:10;;;;;;;;;;;;;;;1.92;100.00;96947.72;5093074;28;19960;-78
2022/12/01 05:35:36;;;;;;;;;;;;;;;1.86;100.00;96941.38;5076234;28;19975;-77
2022/12/01 05:38:02;;;;;;;;;;;;;;;1.87;100.00;96945.59;5093260;28;19976;-77
2022/12/01 05:40:29;;;;;;;;;;;;;;;1.84;100.00;96943.31;5093206;28;20386;-77
2022/12/01 05:42:55;;;;;;;;;;;;;;;1.82;100.00;96943.44;5094693;28;20318;-77
2022/12/01 05:45:22;;;;;;;;;;;;;;;1.80;100.00;96937.59;5093085;28;20392;-77
2022/12/01 05:47:47;;;;;;;;;;;;;;;1.82;100.00;96940.84;5075992;28;20465;-77
2022/12/01 05:50:13;;;;;;;;;;;;;;;1.83;100.00;96937.31;5094486;28;19959;-77
2022/12/01 05:52:39;;;;;;;;;;;;;;;1.83;100.00;96945.09;5094329;28;20456;-76
2022/12/01 05:55:06;;;;;;;;;;;;;;;1.83;100.00;96942.50;5094489;28;19958;-77
2022/12/01 05:57:32;;;;;;;;;;;;;;;1.85;100.00;96946.69;5094011;28;19953;-78
2022/12/01 05:59:58;;;;;;;;;;;;;;;1.83;100.00;96942.50;5094344;28;19949;-77
2022/12/01 06:02:25;;;;;;;;;;;;;;;1.83;100.00;96937.31;5092923;28;19952;-76
2022/12/01 06:04:52;;;;;;;;;;;;;;;1.82;100.00;96943.44;5093041;28;19950;-77
2022/12/01 06:07:18;;;;;;;;;;;;;;;1.80;100.00;96947.94;5093843;28;19962;-79
2022/12/01 06:09:45;;;;;;;;;;;;;;;1.80;100.00;96950.53;5094039;28;19957;-78
2022/12/01 06:12:11;;;;;;;;;;;;;;;1.79;100.00;96942.94;5075821;28;19984;-78
2022/12/01 06:14:37;;;;;;;;;;;;;;;1.76;100.00;96948.41;5075833;28;19946;-77
2022/12/01 06:17:03;;;;;;;;;;;;;;;1.73;100.00;96948.72;5075847;28;20000;-78
2022/12/01 06:19:30;;;;;;;;;;;;;;;1.70;100.00;96952.44;5093736;28;19943;-78
2022/12/01 06:21:56;;;;;;;;;;;;;;;1.66;100.00;96945.09;5093965;28;19956;-78
2022/12/01 06:24:22;;;;;;;;;;;;;;;1.65;100.00;96957.22;5092411;28;19952;-78
2022/12/01 06:26:48;;;;;;;;;;;;;;;1.64;100.00;96947.84;5092618;28;19958;-78
2022/12/01 06:29:14;;;;;;;;;;;;;;;1.65;100.00;96949.47;5092457;28;19953;-77
2022/12/01 06:31:40;;;;;;;;;;;;;;;1.66;100.00;96950.25;5094118;28;19959;-78
2022/12/01 06:34:06;;;;;;;;;;;;;;;1.65;100.00;96953.81;5092380;28;20352;-78
2022/12/01 06:36:32;;;;;;;;;;;;;;;1.63;100.00;96956.56;5094154;28;19954;-78
2022/12/01 06:38:57;;;;;;;;;;;;;;;1.64;100.00;96960.78;5092439;28;19999;-78
2022/12/01 06:41:23;;;;;;;;;;;;;;;1.63;100.00;96962.53;5075716;28;19953;-78
2022/12/01 06:43:49;;;;;;;;;;;;;;;1.61;100.00;96969.63;5076184;28;19947;-79
2022/12/01 06:46:15;;;;;;;;;;;;;;;1.61;100.00;96974.78;5092431;28;20032;-79
2022/12/01 06:48:41;;;;;;;;;;;;;;;1.60;100.00;96972.38;5092496;28;19948;-78
2022/12/01 06:51:07;;;;;;;;;;;;;;;1.58;100.00;96976.88;5092213;28;20336;-78
2022/12/01 06:53:33;;;;;;;;;;;;;;;1.58;100.00;96975.09;5093406;28;20003;-79
2022/12/01 06:55:59;;;;;;;;;;;;;;;1.60;100.00;96975.75;5092249;28;20030;-78
2022/12/01 06:58:25;;;;;;;;;;;;;;;1.62;100.00;96968.66;5093551;28;19956;-79
2022/12/01 07:00:51;;;;;;;;;;;;;;;1.63;100.00;96979.81;5096605;28;20422;-79
2022/12/01 07:03:17;;;;;;;;;;;;;;;1.62;100.00;96975.63;5079323;28;19951;-78
2022/12/01 07:05:43;;;;;;;;;;;;;;;1.63;100.00;96977.22;5096466;28;19952;-79
2022/12/01 07:08:09;;;;;;;;;;;;;;;1.59;100.00;96979.28;5097608;28;20035;-78
2022/12/01 07:10:35;;;;;;;;;;;;;;;1.59;100.00;96983.66;5096171;28;20032;-79
2022/12/01 07:13:01;;;;;;;;;;;;;;;1.57;100.00;96988.97;5097250;28;20427;-79
2022/12/01 07:15:27;;;;;;;;;;;;;;;1.56;100.00;96996.88;5096123;28;19951;-78
2022/12/01 07:17:53;;;;;;;;;;;;;;;1.56;100.00;96996.88;5097290;28;19955;-79
2022/12/01 07:20:19;;;;;;;;;;;;;;;1.57;100.00;96990.75;5079547;28;19952;-79
2022/12/01 07:22:45;;;;;;;;;;;;;;;1.58;100.00;96995.78;5096046;28;19999;-79
2022/12/01 07:25:11;;;;;;;;;;;;;;;1.58;100.00;96995.78;5096330;28;20478;-79
2022/12/01 07:27:36;;;;;;;;;;;;;;;1.58;100.00;96993.19;5097011;28;19953;-79
2022/12/01 07:30:03;;;;;;;;;;;;;;;1.58;100.00;96994.97;5097293;28;20001;-79
2022/12/01 07:32:29;;;;;;;;;;;;;;;1.60;100.00;96995.63;5097037;28;19968;-79
2022/12/01 07:34:55;;;;;;;;;;;;;;;1.62;100.00;97001.47;5095345;28;19978;-79
2022/12/01 07:37:20;;;;;;;;;;;;;;;1.66;100.00;97004.56;5096078;28;20355;-79
2022/12/01 07:39:46;;;;;;;;;;;;;;;1.68;100.00;97006.06;5095374;28;19986;-79
2022/12/01 07:42:12;;;;;;;;;;;;;;;1.72;100.00;97007.38;5096730;28;19994;-79
2022/12/01 07:44:38;;;;;;;;;;;;;;;1.71;100.00;97005.75;5095694;28;20004;-80
2022/12/01 07:47:04;;;;;;;;;;;;;;;1.69;100.00;97009.44;5096743;28;19993;-79
2022/12/01 07:49:30;;;;;;;;;;;;;;;1.71;100.00;97016.09;5095231;28;20036;-79
2022/12/01 07:51:55;;;;;;;;;;;;;;;1.73;100.00;97006.41;5096604;28;20020;-79
2022/12/01 07:54:21;;;;;;;;;;;;;;;1.76;100.00;97013.06;5095314;28;19960;-78
2022/12/01 07:56:47;;;;;;;;;;;;;;;1.78;100.00;97017.09;5095484;28;19951;-78
2022/12/01 07:59:13;;;;;;;;;;;;;;;1.78;100.00;97008.53;5096593;28;19993;-79
2022/12/01 08:01:39;;;;;;;;;;;;;;;1.79;100.00;97010.19;5096535;28;20087;-79
2022/12/01 08:04:05;;;;;;;;;;;;;;;1.79;100.00;97012.78;5094924;28;20033;-79
2022/12/01 08:06:31;;;;;;;;;;;;;;;1.79;100.00;97021.34;5096641;28;19959;-79
2022/12/01 08:08:57;;;;;;;;;;;;;;;1.79;100.00;97021.34;5094620;28;20481;-79
2022/12/01 08:11:24;;;;;;;;;;;;;;;1.80;100.00;97020.34;5096165;28;20438;-79
2022/12/01 08:13:51;;;;;;;;;;;;;;;1.82;100.00;97022.81;5095126;28;19953;-78
2022/12/01 08:16:18;;;;;;;;;;;;;;;1.83;100.00;97022.66;5095037;28;19974;-79
2022/12/01 08:18:44;;;;;;;;;;;;;;;1.83;100.00;97020.09;5096197;28;20325;-79
2022/12/01 08:21:12;;;;;;;;;;;;;;;1.82;100.00;97021.03;5094819;28;19950;-79
2022/12/01 08:23:38;;;;;;;;;;;;;;;1.83;100.00;97016.69;5096102;28;19958;-79
2022/12/01 08:26:05;;;;;;;;;;;;;;;1.85;100.00;97026.88;5095067;28;19959;-79
2022/12/01 08:28:33;;;;;;;;;;;;;;;1.86;100.00;97029.31;5096115;28;19948;-79
2022/12/01 08:31:05;;;;;;;;;;;;;;;1.86;100.00;97028.50;5095731;28;19948;-79
2022/12/01 08:33:31;;;;;;;;;;;;;;;1.81;100.00;97032.34;5095953;28;19952;-79
2022/12/01 08:36:00;;;;;;;;;;;;;;;1.80;100.00;97027.31;5078240;28;20026;-78
2022/12/01 08:38:26;;;;;;;;;;;;;;;1.79;100.00;97026.50;5095701;28;19977;-79
2022/12/01 08:40:55;;;;;;;;;;;;;;;1.75;100.00;97027.75;5095889;28;19997;-79
2022/12/01 08:43:21;;;;;;;;;;;;;;;1.74;100.00;97031.31;5094442;28;19953;-79
2022/12/01 08:45:47;;;;;;;;;;;;;;;1.74;100.00;97028.75;5094604;28;20013;-79
2022/12/01 08:48:13;;;;;;;;;;;;;;;1.78;100.00;97024.88;5095930;28;19949;-79
2022/12/01 08:50:39;;;;;;;;;;;;;;;1.82;100.00;97040.91;5077207;28;19964;-78
2022/12/01 08:53:05;;;;;;;;;;;;;;;1.86;100.00;97036.25;5094088;28;20014;-79
2022/12/01 08:55:31;;;;;;;;;;;;;;;1.85;100.00;97032.88;5095617;28;19988;-79
2022/12/01 08:57:57;;;;;;;;;;;;;;;1.86;100.00;97039.66;5093962;28;19951;-79
2022/12/01 09:00:23;;;;;;;;;;;;;;;1.87;100.00;97040.47;5095243;28;19958;-79
2022/12/01 09:02:49;;;;;;;;;;;;;;;1.88;100.00;97035.16;5094041;28;19953;-79
2022/12/01 09:05:14;;;;;;;;;;;;;;;1.89;100.00;97035.94;5093852;28;19956;-79
2022/12/01 09:07:41;;;;;;;;;;;;;;;1.87;100.00;97032.69;5095135;28;19947;-79
2022/12/01 09:10:08;;;;;;;;;;;;;;;1.83;100.00;97033.00;5076963;28;19956;-79
2022/12/01 09:12:33;;;;;;;;;;;;;;;1.83;100.00;97039.97;5094842;28;19971;-79
2022/12/01 09:14:59;;;;;;;;;;;;;;;1.81;100.00;97032.34;5077364;28;20050;-79
2022/12/01 09:17:27;;;;;;;;;;;;;;;1.81;100.00;97044.47;5093635;28;19946;-79
2022/12/01 09:19:52;;;;;;;;;;;;;;;2.09;100.00;97040.00;5076860;28;20417;-75
2022/12/01 09:22:18;;;;;;;;;;;;;;;2.64;100.00;97039.72;5093082;28;19955;-79
2022/12/01 09:24:44;;;;;;;;;;;;;;;2.60;100.00;97048.78;5095012;28;20007;-79
2022/12/01 09:27:10;;;;;;;;;;;;;;;2.63;100.00;97043.28;5094646;28;19944;-79
2022/12/01 09:29:36;;;;;;;;;;;;;;;2.56;100.00;97031.09;5093423;28;19954;-79
2022/12/01 09:32:02;;;;;;;;;;;;;;;2.47;100.00;97037.22;5094880;28;19974;-79
2022/12/01 09:34:28;;;;;;;;;;;;;;;2.35;100.00;97037.47;5094369;28;19976;-79
2022/12/01 09:36:55;;;;;;;;;;;;;;;2.59;100.00;97030.81;5094931;28;19999;-79
2022/12/01 09:39:21;;;;;;;;;;;;;;;3.47;100.00;97020.16;5093422;28;19947;-80
2022/12/01 09:41:53;;;;;;;;;;;;;;;3.69;100.00;97010.94;5093070;28;19995;-80
2022/12/01 09:44:29;;;;;;;;;;;;;;;3.42;100.00;97027.59;5076749;28;19973;-80
2022/12/01 09:46:57;;;;;;;;;;;;;;;3.03;100.00;97023.75;5076093;28;19942;-80
2022/12/01 09:49:41;;;;;;;;;;;;;;;2.75;100.00;97027.50;5094286;28;20409;-79
2022/12/01 09:52:10;;;;;;;;;;;;;;;2.52;100.00;97034.97;5094311;28;19957;-80
2022/12/01 09:54:36;;;;;;;;;;;;;;;2.37;100.00;97034.72;5094254;28;19942;-80
2022/12/01 09:57:02;;;;;;;;;;;;;;;2.27;100.00;97028.81;5094827;28;19996;-79
2022/12/01 09:59:31;;;;;;;;;;;;;;;2.18;100.00;97028.78;5092864;28;19955;-79
2022/12/01 10:01:59;;;;;;;;;;;;;;;2.15;100.00;97033.44;5093086;28;19949;-79
2022/12/01 10:04:30;;;;;;;;;;;;;;;2.11;100.00;97026.94;5094301;28;19959;-81
2022/12/01 10:07:01;;;;;;;;;;;;;;;2.09;100.00;97034.03;5094439;28;19962;-80
2022/12/01 10:09:38;;;;;;;;;;;;;;;2.07;100.00;97029.00;5094085;28;19946;-80
2022/12/01 10:12:12;;;;;;;;;;;;;;;2.06;100.00;97013.63;5093831;28;20042;-80
2022/12/01 10:14:38;;;;;;;;;;;;;;;2.03;100.00;97020.72;5093098;28;19950;-80
2022/12/01 10:17:10;;;;;;;;;;;;;;;2.00;100.00;97015.84;5093915;28;20003;-80
2022/12/01 10:19:45;;;;;;;;;;;;;;;1.99;100.00;97009.03;5075846;28;19940;-80
2022/12/01 10:22:19;;;;;;;;;;;;;;;1.99;100.00;97013.41;5092800;28;19944;-80
2022/12/01 10:24:52;;;;;;;;;;;;;;;2.03;100.00;97004.38;5094341;28;19952;-80
2022/12/01 10:27:31;;;;;;;;;;;;;;;2.03;100.00;97007.78;5092580;28;19951;-80
2022/12/01 10:30:05;;;;;;;;;;;;;;;2.06;100.00;97006.69;5094272;28;19945;-80
2022/12/01 10:32:31;;;;;;;;;;;;;;;2.06;100.00;96998.94;5093320;28;19984;-80
2022/12/01 10:34:57;;;;;;;;;;;;;;;2.05;100.00;96997.28;5092358;28;19970;-80
2022/12/01 10:37:26;;;;;;;;;;;;;;;2.08;100.00;97003.94;5094041;28;20339;-80
2022/12/01 10:39:53;;;;;;;;;;;;;;;2.06;100.00;96991.16;5075657;28;19948;-80
2022/12/01 10:42:22;;;;;;;;;;;;;;;2.05;100.00;96999.88;5093710;28;20398;-81
2022/12/01 10:44:49;;;;;;;;;;;;;;;2.05;100.00;96997.28;5075486;28;19951;-80
2022/12/01 10:47:18;;;;;;;;;;;;;;;2.05;100.00;96993.91;5093442;28;20405;-80
2022/12/01 10:49:44;;;;;;;;;;;;;;;2.07;100.00;96995.38;5092353;28;19955;-81
2022/12/01 10:52:28;;;;;;;;;;;;;;;2.07;100.00;96995.38;5093423;28;20303;-80
2022/12/01 10:54:54;;;;;;;;;;;;;;;2.06;100.00;96988.56;5094063;28;19949;-80
2022/12/01 10:57:20;;;;;;;;;;;;;;;2.08;100.00;96989.25;5093298;28;19968;-81
2022/12/01 11:00:05;;;;;;;;;;;;;;;2.05;100.00;96989.53;5092299;28;19948;-80
2022/12/01 11:02:32;;;;;;;;;;;;;;;2.05;100.00;96986.13;5092346;28;20001;-80
2022/12/01 11:05:03;;;;;;;;;;;;;;;2.03;100.00;96989.66;5075137;28;19955;-80
2022/12/01 11:07:32;;;;;;;;;;;;;;;2.03;100.00;96981.91;5093900;28;20333;-80
2022/12/01 11:10:16;;;;;;;;;;;;;;;2.06;100.00;96983.41;5093522;28;19943;-80
2022/12/01 11:12:44;;;;;;;;;;;;;;;2.03;100.00;96974.16;5093480;28;19970;-80
2022/12/01 11:15:26;;;;;;;;;;;;;;;2.02;100.00;96979.50;5093536;28;19948;-80
2022/12/01 11:17:57;;;;;;;;;;;;;;;2.01;100.00;96973.47;5093320;28;19945;-81
2022/12/01 11:20:26;;;;;;;;;;;;;;;2.03;100.00;96978.50;5075764;28;19961;-80
2022/12/01 11:23:12;;;;;;;;;;;;;;;2.05;100.00;96965.44;5093245;28;19966;-80
2022/12/01 11:25:38;;;;;;;;;;;;;;;2.02;100.00;96969.16;5091927;28;19952;-80
2022/12/01 11:28:04;;;;;;;;;;;;;;;2.03;100.00;96973.34;5092146;28;20442;-80
2022/12/01 11:30:31;;;;;;;;;;;;;;;2.04;100.00;96967.22;5091853;28;19954;-81
2022/12/01 11:32:59;;;;;;;;;;;;;;;2.03;100.00;96973.34;5092359;28;19983;-80
2022/12/01 11:35:26;;;;;;;;;;;;;;;2.02;100.00;96972.53;5092857;28;19975;-80
2022/12/01 11:37:56;;;;;;;;;;;;;;;1.99;100.00;96967.66;5092359;28;19950;-80
2022/12/01 11:40:24;;;;;;;;;;;;;;;2.52;100.00;96960.72;5093258;28;19954;-78
2022/12/01 11:42:52;;;;;;;;;;;;;;;3.12;100.00;96956.41;5093046;28;19957;-80
2022/12/01 11:45:35;;;;;;;;;;;;;;;3.32;100.00;96949.13;5094735;28;19955;-80
2022/12/01 11:48:10;;;;;;;;;;;;;;;3.17;100.00;96954.13;5095666;28;20337;-80
2022/12/01 11:50:37;;;;;;;;;;;;;;;2.95;100.00;96952.94;5095607;28;19951;-80
2022/12/01 11:53:23;;;;;;;;;;;;;;;2.73;100.00;96956.91;5096555;28;19975;-80
2022/12/01 11:55:49;;;;;;;;;;;;;;;2.58;100.00;96961.84;5069044;28;19952;-81
2022/12/01 11:58:15;;;;;;;;;;;;;;;2.49;100.00;96950.66;5095053;28;20376;-81
2022/12/01 12:00:54;;;;;;;;;;;;;;;2.42;100.00;96954.84;5095637;28;20319;-80
2022/12/01 12:03:38;;;;;;;;;;;;;;;2.39;100.00;96947.34;5078260;28;19959;-81
2022/12/01 12:06:27;;;;;;;;;;;;;;;2.35;100.00;96951.22;5096493;28;19958;-81
2022/12/01 12:09:01;;;;;;;;;;;;;;;2.35;100.00;96948.63;5084349;28;20336;-81
2022/12/01 12:11:37;;;;;;;;;;;;;;;2.34;100.00;96947.81;5096356;28;19958;-81
2022/12/01 12:14:13;;;;;;;;;;;;;;;2.31;100.00;96955.91;5096118;28;19947;-81
2022/12/01 12:16:45;;;;;;;;;;;;;;;2.28;100.00;96955.41;5095459;28;19953;-81
2022/12/01 12:19:11;;;;;;;;;;;;;;;2.25;100.00;96953.94;5096003;28;19955;-81
2022/12/01 12:21:43;;;;;;;;;;;;;;;2.27;100.00;96946.00;5094707;28;20351;-81
2022/12/01 12:24:15;;;;;;;;;;;;;;;2.23;100.00;96946.31;5095028;28;19951;-81
2022/12/01 12:27:00;;;;;;;;;;;;;;;2.21;100.00;96942.25;5094939;28;20421;-81
2022/12/01 12:29:41;;;;;;;;;;;;;;;2.16;100.00;96942.72;5077760;28;19945;-81
2022/12/01 12:32:19;;;;;;;;;;;;;;;2.13;100.00;96939.63;5068296;28;19973;-80
2022/12/01 12:34:58;;;;;;;;;;;;;;;2.13;100.00;96947.38;5085785;28;19978;-80
2022/12/01 12:37:32;;;;;;;;;;;;;;;2.14;100.00;96942.06;5064738;28;21377;-81
2022/12/01 12:40:01;;;;;;;;;;;;;;;2.18;100.00;96932.19;5095988;28;19962;-80
2022/12/01 12:42:27;;;;;;;;;;;;;;;2.21;100.00;96924.16;5095645;28;19950;-80
2022/12/01 12:45:12;;;;;;;;;;;;;;;2.24;100.00;96926.41;5094310;28;19948;-80
2022/12/01 12:47:47;;;;;;;;;;;;;;;2.24;100.00;96922.03;5077516;28;20321;-80
2022/12/01 12:50:23;;;;;;;;;;;;;;;2.23;100.00;96923.03;5095612;28;19954;-82
2022/12/01 12:52:52;;;;;;;;;;;;;;;2.22;100.00;96925.75;5095502;28;19962;-81
2022/12/01 12:55:24;;;;;;;;;;;;;;;2.20;100.00;96928.50;5095221;28;20583;-81
2022/12/01 12:57:59;;;;;;;;;;;;;;;2.20;100.00;96933.66;5095544;28;19950;-81
2022/12/01 13:00:27;;;;;;;;;;;;;;;2.20;100.00;96917.34;5095133;28;19948;-81